地図

経路データ

SID SEASON NUMBER BASIN SUBBASIN NAME ISO_TIME NATURE LAT LON WMO_WIND WMO_PRES WMO_AGENCY TRACK_TYPE DIST2LAND LANDFALL IFLAG USA_AGENCY USA_ATCF_ID USA_LAT USA_LON USA_RECORD USA_STATUS USA_WIND USA_PRES USA_SSHS USA_R34_NE USA_R34_SE USA_R34_SW USA_R34_NW USA_R50_NE USA_R50_SE USA_R50_SW USA_R50_NW USA_R64_NE USA_R64_SE USA_R64_SW USA_R64_NW USA_POCI USA_ROCI USA_RMW USA_EYE TOKYO_LAT TOKYO_LON TOKYO_GRADE TOKYO_WIND TOKYO_PRES TOKYO_R50_DIR TOKYO_R50_LONG TOKYO_R50_SHORT TOKYO_R30_DIR TOKYO_R30_LONG TOKYO_R30_SHORT TOKYO_LAND CMA_LAT CMA_LON CMA_CAT CMA_WIND CMA_PRES HKO_LAT HKO_LON HKO_CAT HKO_WIND HKO_PRES NEWDELHI_LAT NEWDELHI_LON NEWDELHI_GRADE NEWDELHI_WIND NEWDELHI_PRES NEWDELHI_CI NEWDELHI_DP NEWDELHI_POCI REUNION_LAT REUNION_LON REUNION_TYPE REUNION_WIND REUNION_PRES REUNION_TNUM REUNION_CI REUNION_RMW REUNION_R34_NE REUNION_R34_SE REUNION_R34_SW REUNION_R34_NW REUNION_R50_NE REUNION_R50_SE REUNION_R50_SW REUNION_R50_NW REUNION_R64_NE REUNION_R64_SE REUNION_R64_SW REUNION_R64_NW BOM_LAT BOM_LON BOM_TYPE BOM_WIND BOM_PRES BOM_TNUM BOM_CI BOM_RMW BOM_R34_NE BOM_R34_SE BOM_R34_SW BOM_R34_NW BOM_R50_NE BOM_R50_SE BOM_R50_SW BOM_R50_NW BOM_R64_NE BOM_R64_SE BOM_R64_SW BOM_R64_NW BOM_ROCI BOM_POCI BOM_EYE BOM_POS_METHOD BOM_PRES_METHOD NADI_LAT NADI_LON NADI_CAT NADI_WIND NADI_PRES WELLINGTON_LAT WELLINGTON_LON WELLINGTON_WIND WELLINGTON_PRES DS824_LAT DS824_LON DS824_STAGE DS824_WIND DS824_PRES TD9636_LAT TD9636_LON TD9636_STAGE TD9636_WIND TD9636_PRES TD9635_LAT TD9635_LON TD9635_WIND TD9635_PRES TD9635_ROCI NEUMANN_LAT NEUMANN_LON NEUMANN_CLASS NEUMANN_WIND NEUMANN_PRES MLC_LAT MLC_LON MLC_CLASS MLC_WIND MLC_PRES USA_GUST BOM_GUST BOM_GUST_PER REUNION_GUST REUNION_GUST_PER USA_SEAHGT USA_SEARAD_NE USA_SEARAD_SE USA_SEARAD_SW USA_SEARAD_NW STORM_SPEED STORM_DIR
1912214N18086 1912 34 NI BB NOT_NAMED 1912-08-01 00:00:00 TS 18.4000 86.4000 main 168 158 _________O____ -1 18.4000 86.4000 TC 34 3 349
1912214N18086 1912 34 NI BB NOT_NAMED 1912-08-01 03:00:00 TS 18.5400 86.3733 main 158 133 _________PO___ -1 18.6100 86.3600 TC 36 18.4000 86.4000 2 3 344
1912214N18086 1912 34 NI BB NOT_NAMED 1912-08-01 06:00:00 TS 18.7181 86.3095 main 133 109 _________OP___ -1 18.8000 86.3000 TC 39 18.5954 86.3238 2 4 337
1912214N18086 1912 34 NI BB NOT_NAMED 1912-08-01 09:00:00 TS 18.8825 86.2248 main 109 94 _________PP___ -1 18.9575 86.2075 TC 42 18.7826 86.2479 2 4 332
1912214N18086 1912 34 NI BB NOT_NAMED 1912-08-01 12:00:00 TS 19.0268 86.1366 main 94 74 _________OP___ -1 19.1000 86.1000 TC 45 18.9535 86.1731 2 3 331
1912214N18086 1912 34 NI BB NOT_NAMED 1912-08-01 15:00:00 TS 19.1750 86.0500 main 74 59 _________PO___ -1 19.2500 86.0000 TC 45 19.1000 86.1000 3 3 330
1912214N18086 1912 34 NI BB NOT_NAMED 1912-08-01 18:00:00 TS 19.3103 85.9635 main 59 45 _________OP___ -1 19.4000 85.9000 TC 45 19.2205 86.0270 3 3 327
1912214N18086 1912 34 NI BB NOT_NAMED 1912-08-01 21:00:00 TS 19.4261 85.8795 main 45 22 _________PP___ -1 19.5125 85.8148 TC 45 19.3398 85.9442 3 3 327
1912214N18086 1912 34 NI BB NOT_NAMED 1912-08-02 00:00:00 TS 19.5946 85.7697 main 22 0 _________OP___ -1 19.7000 85.7000 TC 45 19.4892 85.8393 3 5 331
1912214N18086 1912 34 NI BB NOT_NAMED 1912-08-02 03:00:00 TS 19.8850 85.6113 main 0 0 _________PO___ -1 20.0700 85.5226 TC 41 19.7000 85.7000 3 8 333
1912214N18086 1912 34 NI BB NOT_NAMED 1912-08-02 06:00:00 TS 20.2633 85.4117 main 0 0 _________OP___ -1 20.5000 85.3000 TC 37 20.0265 85.5234 3 9 332
1912214N18086 1912 34 NI BB NOT_NAMED 1912-08-02 09:00:00 TS 20.6387 85.1877 main 0 0 _________PP___ -1 20.8650 85.0649 TC 33 20.4124 85.3104 3 9 329
1912214N18086 1912 34 NI BB NOT_NAMED 1912-08-02 12:00:00 TS 21.0086 84.9335 main 0 0 _________OP___ -1 21.2000 84.8000 TC 30 20.8171 85.0671 3 9 325
1912214N18086 1912 34 NI BB NOT_NAMED 1912-08-02 15:00:00 TS 21.3575 84.6537 main 0 0 _________PO___ -1 21.5150 84.5074 TC 30 21.2000 84.8000 1 9 320
1912214N18086 1912 34 NI BB NOT_NAMED 1912-08-02 18:00:00 TS 21.6601 84.3527 main 0 0 _________OP___ -1 21.8000 84.2000 TC 30 21.5202 84.5054 1 8 315
1912214N18086 1912 34 NI BB NOT_NAMED 1912-08-02 21:00:00 TS 21.9376 84.0388 main 0 0 _________PP___ -1 22.0650 83.8850 TC 30 21.8103 84.1927 1 8 313
1912214N18086 1912 34 NI BB NOT_NAMED 1912-08-03 00:00:00 TS 22.1851 83.7418 main 0 0 _________OP___ -1 22.3000 83.6000 TC 30 22.0702 83.8836 1 7 313
1912214N18086 1912 34 NI BB NOT_NAMED 1912-08-03 03:00:00 TS 22.4075 83.4924 main 0 0 _________PO___ -1 22.5149 83.3849 TC 30 22.3000 83.6000 1 6 315
1912214N18086 1912 34 NI BB NOT_NAMED 1912-08-03 06:00:00 TS 22.6078 83.2854 main 0 0 _________OP___ -1 22.7000 83.2000 TC 30 22.5156 83.3708 1 5 315
1912214N18086 1912 34 NI BB NOT_NAMED 1912-08-03 09:00:00 TS 22.7835 83.0847 main 0 0 _________PP___ -1 22.8650 83.0000 TC 30 22.7021 83.1694 1 5 312
1912214N18086 1912 34 NI BB NOT_NAMED 1912-08-03 12:00:00 TS 22.9313 82.8917 main 0 0 _________OP___ -1 23.0000 82.8000 TC 30 22.8626 82.9834 1 4 307
1912214N18086 1912 34 NI BB NOT_NAMED 1912-08-03 15:00:00 TS 23.0537 82.7000 main 0 0 _________PO___ -1 23.1075 82.5999 TC 30 23.0000 82.8000 1 4 303
1912214N18086 1912 34 NI BB NOT_NAMED 1912-08-03 18:00:00 TS 23.1628 82.5019 main 0 0 _________OP___ -1 23.2000 82.4000 TC 30 23.1255 82.6038 1 4 300
1912214N18086 1912 34 NI BB NOT_NAMED 1912-08-03 21:00:00 TS 23.2649 82.3036 main 0 0 _________PP___ -1 23.3000 82.2000 TC 30 23.2298 82.4072 1 4 298
1912214N18086 1912 34 NI BB NOT_NAMED 1912-08-04 00:00:00 TS 23.3596 82.1035 main 0 0 _________OP___ -1 23.4000 82.0000 TC 30 23.3192 82.2070 1 4 297
1912214N18086 1912 34 NI BB NOT_NAMED 1912-08-04 03:00:00 TS 23.4537 81.9037 main 0 0 _________PO___ -1 23.5074 81.8075 TC 30 23.4000 82.0000 1 4 296
1912214N18086 1912 34 NI BB NOT_NAMED 1912-08-04 06:00:00 TS 23.5431 81.6870 main 0 0 _________OP___ -1 23.6000 81.6000 TC 30 23.4863 81.7740 1 5 290
1912214N18086 1912 34 NI BB NOT_NAMED 1912-08-04 09:00:00 TS 23.6113 81.4425 main 0 0 _________PP___ -1 23.6576 81.3425 TC 30 23.5651 81.5425 1 5 286
1912214N18086 1912 34 NI BB NOT_NAMED 1912-08-04 12:00:00 TS 23.6681 81.2073 main 0 0 _________OP___ -1 23.7000 81.1000 TC 30 23.6363 81.3147 1 4 286
1912214N18086 1912 34 NI BB NOT_NAMED 1912-08-04 15:00:00 TS 23.7250 81.0212 main 0 0 _________PO___ -1 23.7499 80.9425 TC 30 23.7000 81.1000 1 3 289
1912214N18086 1912 34 NI BB NOT_NAMED 1912-08-04 18:00:00 TS 23.7752 80.8602 main 0 0 _________OP___ -1 23.8000 80.8000 TC 30 23.7566 80.9053 1 3 288
1912214N18086 1912 34 NI BB NOT_NAMED 1912-08-04 21:00:00 TS 23.8246 80.6825 main 0 0 _________PP___ -1 23.8501 80.6151 TC 30 23.8075 80.7275 1 3 286
1912214N18086 1912 34 NI BB NOT_NAMED 1912-08-05 00:00:00 TS 23.8698 80.5073 main 0 0 _________OP___ -1 23.9000 80.4000 TC 30 23.8547 80.5610 1 3 286
1912214N18086 1912 34 NI BB NOT_NAMED 1912-08-05 03:00:00 NR 23.9000 80.4000 main 0 __________O___ -1 TC 23.9000 80.4000 1 2 287

IBTrACS Databaseについて

本データベースは、米国NOAAが公開する1842年以降の世界の熱帯低気圧のベストトラックデータアーカイブInternational Best Track Archive for Climate Stewardship (IBTrACS)を、ウェブで閲覧しやすい形式に変換したものです。

最終更新日:2021-11-26